sensor_id;sensor_type;location;lat;lon;timestamp;pressure;altitude;pressure_sealevel;temperature;humidity
16194;BME280;8204;53.582;10.080;2022-11-11T00:01:15;101841.00;;;14.29;100.00
16194;BME280;8204;53.582;10.080;2022-11-11T00:03:44;101843.31;;;14.32;100.00
16194;BME280;8204;53.582;10.080;2022-11-11T00:06:15;101832.91;;;14.30;100.00
16194;BME280;8204;53.582;10.080;2022-11-11T00:08:46;101825.97;;;14.29;100.00
16194;BME280;8204;53.582;10.080;2022-11-11T00:11:16;101846.09;;;14.30;100.00
16194;BME280;8204;53.582;10.080;2022-11-11T00:13:47;101838.66;;;14.26;100.00
16194;BME280;8204;53.582;10.080;2022-11-11T00:16:17;101827.06;;;14.19;100.00
16194;BME280;8204;53.582;10.080;2022-11-11T00:18:46;101827.28;;;14.25;100.00
16194;BME280;8204;53.582;10.080;2022-11-11T00:21:28;101819.03;;;14.20;100.00
16194;BME280;8204;53.582;10.080;2022-11-11T00:24:20;101814.06;;;14.17;100.00
16194;BME280;8204;53.582;10.080;2022-11-11T00:27:03;101801.84;;;14.16;100.00
16194;BME280;8204;53.582;10.080;2022-11-11T00:29:36;101822.03;;;14.25;100.00
16194;BME280;8204;53.582;10.080;2022-11-11T00:32:07;101822.84;;;14.26;100.00
16194;BME280;8204;53.582;10.080;2022-11-11T00:34:53;101815.03;;;14.16;100.00
16194;BME280;8204;53.582;10.080;2022-11-11T00:37:35;101816.84;;;14.16;100.00
16194;BME280;8204;53.582;10.080;2022-11-11T00:40:05;101793.94;;;14.16;100.00
16194;BME280;8204;53.582;10.080;2022-11-11T00:42:34;101795.59;;;14.17;100.00
16194;BME280;8204;53.582;10.080;2022-11-11T00:45:07;101787.69;;;14.17;100.00
16194;BME280;8204;53.582;10.080;2022-11-11T00:47:35;101775.41;;;14.08;100.00
16194;BME280;8204;53.582;10.080;2022-11-11T00:50:19;101770.47;;;14.05;100.00
16194;BME280;8204;53.582;10.080;2022-11-11T00:53:01;101771.44;;;14.04;100.00
16194;BME280;8204;53.582;10.080;2022-11-11T00:55:30;101781.38;;;14.10;100.00
16194;BME280;8204;53.582;10.080;2022-11-11T00:57:58;101790.66;;;14.14;100.00
16194;BME280;8204;53.582;10.080;2022-11-11T01:00:30;101775.13;;;14.11;100.00
16194;BME280;8204;53.582;10.080;2022-11-11T01:02:59;101776.81;;;14.12;100.00
16194;BME280;8204;53.582;10.080;2022-11-11T01:05:29;101762.22;;;14.08;100.00
16194;BME280;8204;53.582;10.080;2022-11-11T01:07:58;101773.91;;;14.06;100.00
16194;BME280;8204;53.582;10.080;2022-11-11T01:10:27;101761.41;;;14.08;100.00
16194;BME280;8204;53.582;10.080;2022-11-11T01:13:15;101754.31;;;14.00;100.00
16194;BME280;8204;53.582;10.080;2022-11-11T01:15:50;101771.78;;;14.09;100.00
16194;BME280;8204;53.582;10.080;2022-11-11T01:18:21;101776.72;;;14.04;100.00
16194;BME280;8204;53.582;10.080;2022-11-11T01:20:57;101780.25;;;14.13;100.00
16194;BME280;8204;53.582;10.080;2022-11-11T01:23:29;101787.84;;;14.16;100.00
16194;BME280;8204;53.582;10.080;2022-11-11T01:26:02;101800.13;;;14.07;100.00
16194;BME280;8204;53.582;10.080;2022-11-11T01:28:31;101785.84;;;14.10;100.00
16194;BME280;8204;53.582;10.080;2022-11-11T01:31:05;101778.97;;;14.17;100.00
16194;BME280;8204;53.582;10.080;2022-11-11T01:33:34;101777.16;;;14.17;100.00
16194;BME280;8204;53.582;10.080;2022-11-11T01:36:06;101770.44;;;14.23;100.00
16194;BME280;8204;53.582;10.080;2022-11-11T01:38:36;101776.53;;;14.23;100.00
16194;BME280;8204;53.582;10.080;2022-11-11T01:41:06;101783.44;;;14.24;100.00
16194;BME280;8204;53.582;10.080;2022-11-11T01:43:47;101773.22;;;14.21;100.00
16194;BME280;8204;53.582;10.080;2022-11-11T01:46:25;101769.81;;;14.29;100.00
16194;BME280;8204;53.582;10.080;2022-11-11T01:48:58;101775.19;;;14.19;100.00
16194;BME280;8204;53.582;10.080;2022-11-11T01:51:45;101767.13;;;14.21;100.00
16194;BME280;8204;53.582;10.080;2022-11-11T01:54:19;101754.09;;;14.19;100.00
16194;BME280;8204;53.582;10.080;2022-11-11T01:56:50;101746.03;;;14.21;100.00
16194;BME280;8204;53.582;10.080;2022-11-11T01:59:20;101755.09;;;14.18;100.00
16194;BME280;8204;53.582;10.080;2022-11-11T02:01:51;101757.38;;;14.21;100.00
16194;BME280;8204;53.582;10.080;2022-11-11T02:04:20;101752.50;;;14.26;100.00
16194;BME280;8204;53.582;10.080;2022-11-11T02:07:03;101752.13;;;14.21;100.00
16194;BME280;8204;53.582;10.080;2022-11-11T02:09:35;101760.53;;;14.17;100.00
16194;BME280;8204;53.582;10.080;2022-11-11T02:12:08;101752.75;;;14.15;100.00
16194;BME280;8204;53.582;10.080;2022-11-11T02:14:52;101741.84;;;14.10;100.00
16194;BME280;8204;53.582;10.080;2022-11-11T02:17:25;101712.94;;;14.01;100.00
16194;BME280;8204;53.582;10.080;2022-11-11T02:19:57;101709.50;;;14.00;100.00
16194;BME280;8204;53.582;10.080;2022-11-11T02:22:32;101716.25;;;14.03;100.00
16194;BME280;8204;53.582;10.080;2022-11-11T02:25:09;101714.78;;;14.00;100.00
16194;BME280;8204;53.582;10.080;2022-11-11T02:27:41;101715.13;;;14.05;100.00
16194;BME280;8204;53.582;10.080;2022-11-11T02:30:11;101713.78;;;14.01;100.00
16194;BME280;8204;53.582;10.080;2022-11-11T02:32:44;101740.44;;;13.98;100.00
16194;BME280;8204;53.582;10.080;2022-11-11T02:35:15;101722.28;;;13.95;100.00
16194;BME280;8204;53.582;10.080;2022-11-11T02:37:45;101708.47;;;13.93;100.00
16194;BME280;8204;53.582;10.080;2022-11-11T02:40:22;101697.94;;;13.93;100.00
16194;BME280;8204;53.582;10.080;2022-11-11T02:42:52;101688.88;;;13.96;100.00
16194;BME280;8204;53.582;10.080;2022-11-11T02:45:21;101705.84;;;13.93;100.00
16194;BME280;8204;53.582;10.080;2022-11-11T02:47:50;101697.88;;;13.85;100.00
16194;BME280;8204;53.582;10.080;2022-11-11T02:50:19;101695.41;;;13.84;100.00
16194;BME280;8204;53.582;10.080;2022-11-11T02:52:48;101700.47;;;13.78;100.00
16194;BME280;8204;53.582;10.080;2022-11-11T02:55:19;101714.00;;;13.82;100.00
16194;BME280;8204;53.582;10.080;2022-11-11T02:57:48;101716.09;;;13.79;100.00
16194;BME280;8204;53.582;10.080;2022-11-11T03:00:17;101718.44;;;13.82;100.00
16194;BME280;8204;53.582;10.080;2022-11-11T03:02:46;101716.94;;;13.80;100.00
16194;BME280;8204;53.582;10.080;2022-11-11T03:05:14;101727.13;;;13.75;100.00
16194;BME280;8204;53.582;10.080;2022-11-11T03:07:43;101733.44;;;13.82;100.00
16194;BME280;8204;53.582;10.080;2022-11-11T03:10:12;101738.53;;;13.83;100.00
16194;BME280;8204;53.582;10.080;2022-11-11T03:12:44;101737.66;;;13.75;100.00
16194;BME280;8204;53.582;10.080;2022-11-11T03:15:12;101744.25;;;13.79;100.00
16194;BME280;8204;53.582;10.080;2022-11-11T03:17:41;101743.34;;;13.87;100.00
16194;BME280;8204;53.582;10.080;2022-11-11T03:20:09;101739.69;;;13.81;100.00
16194;BME280;8204;53.582;10.080;2022-11-11T03:23:02;101748.47;;;13.89;100.00
16194;BME280;8204;53.582;10.080;2022-11-11T03:25:31;101755.84;;;13.85;100.00
16194;BME280;8204;53.582;10.080;2022-11-11T03:28:10;101751.91;;;13.89;100.00
16194;BME280;8204;53.582;10.080;2022-11-11T03:30:41;101763.03;;;13.76;100.00
16194;BME280;8204;53.582;10.080;2022-11-11T03:33:10;101743.59;;;13.77;100.00
16194;BME280;8204;53.582;10.080;2022-11-11T03:35:39;101750.69;;;13.76;100.00
16194;BME280;8204;53.582;10.080;2022-11-11T03:38:10;101743.75;;;13.75;100.00
16194;BME280;8204;53.582;10.080;2022-11-11T03:40:52;101746.84;;;13.71;100.00
16194;BME280;8204;53.582;10.080;2022-11-11T03:43:26;101745.19;;;13.70;100.00
16194;BME280;8204;53.582;10.080;2022-11-11T03:45:56;101755.44;;;13.73;100.00
16194;BME280;8204;53.582;10.080;2022-11-11T03:48:27;101760.84;;;13.71;100.00
16194;BME280;8204;53.582;10.080;2022-11-11T03:50:55;101774.47;;;13.67;100.00
16194;BME280;8204;53.582;10.080;2022-11-11T03:53:24;101774.16;;;13.70;100.00
16194;BME280;8204;53.582;10.080;2022-11-11T03:55:54;101769.41;;;13.73;100.00
16194;BME280;8204;53.582;10.080;2022-11-11T03:58:25;101783.44;;;13.74;100.00
16194;BME280;8204;53.582;10.080;2022-11-11T04:00:54;101787.31;;;13.70;100.00
16194;BME280;8204;53.582;10.080;2022-11-11T04:03:22;101783.59;;;13.72;100.00
16194;BME280;8204;53.582;10.080;2022-11-11T04:06:04;101780.09;;;13.72;100.00
16194;BME280;8204;53.582;10.080;2022-11-11T04:08:46;101782.66;;;13.64;100.00
16194;BME280;8204;53.582;10.080;2022-11-11T04:11:29;101782.06;;;13.70;100.00
16194;BME280;8204;53.582;10.080;2022-11-11T04:14:04;101786.97;;;13.65;100.00
16194;BME280;8204;53.582;10.080;2022-11-11T04:16:47;101781.94;;;13.54;100.00
16194;BME280;8204;53.582;10.080;2022-11-11T04:19:16;101768.63;;;13.55;100.00
16194;BME280;8204;53.582;10.080;2022-11-11T04:21:57;101778.34;;;13.55;100.00
16194;BME280;8204;53.582;10.080;2022-11-11T04:24:26;101772.38;;;13.53;100.00
16194;BME280;8204;53.582;10.080;2022-11-11T04:27:14;101765.78;;;13.49;100.00
16194;BME280;8204;53.582;10.080;2022-11-11T04:29:46;101774.50;;;13.49;100.00
16194;BME280;8204;53.582;10.080;2022-11-11T04:32:14;101782.84;;;13.45;100.00
16194;BME280;8204;53.582;10.080;2022-11-11T04:34:58;101779.25;;;13.46;100.00
16194;BME280;8204;53.582;10.080;2022-11-11T04:37:30;101785.84;;;13.50;100.00
16194;BME280;8204;53.582;10.080;2022-11-11T04:40:00;101787.94;;;13.46;100.00
16194;BME280;8204;53.582;10.080;2022-11-11T04:42:41;101786.78;;;13.41;100.00
16194;BME280;8204;53.582;10.080;2022-11-11T04:45:13;101778.19;;;13.39;100.00
16194;BME280;8204;53.582;10.080;2022-11-11T04:47:57;101797.22;;;13.33;100.00
16194;BME280;8204;53.582;10.080;2022-11-11T04:50:28;101771.34;;;13.28;100.00
16194;BME280;8204;53.582;10.080;2022-11-11T04:52:57;101768.19;;;13.25;100.00
16194;BME280;8204;53.582;10.080;2022-11-11T04:55:26;101753.00;;;13.19;100.00
16194;BME280;8204;53.582;10.080;2022-11-11T04:58:08;101749.75;;;13.25;100.00
16194;BME280;8204;53.582;10.080;2022-11-11T05:00:39;101752.78;;;13.30;100.00
16194;BME280;8204;53.582;10.080;2022-11-11T05:03:09;101757.91;;;13.31;100.00
16194;BME280;8204;53.582;10.080;2022-11-11T05:05:43;101755.72;;;13.27;100.00
16194;BME280;8204;53.582;10.080;2022-11-11T05:08:25;101746.06;;;13.18;100.00
16194;BME280;8204;53.582;10.080;2022-11-11T05:11:07;101743.84;;;13.23;100.00
16194;BME280;8204;53.582;10.080;2022-11-11T05:13:36;101744.28;;;13.18;100.00
16194;BME280;8204;53.582;10.080;2022-11-11T05:16:22;101745.88;;;13.12;100.00
16194;BME280;8204;53.582;10.080;2022-11-11T05:19:04;101735.19;;;13.13;100.00
16194;BME280;8204;53.582;10.080;2022-11-11T05:21:46;101724.44;;;13.07;100.00
16194;BME280;8204;53.582;10.080;2022-11-11T05:24:15;101718.34;;;13.06;100.00
16194;BME280;8204;53.582;10.080;2022-11-11T05:26:56;101706.84;;;13.07;100.00
16194;BME280;8204;53.582;10.080;2022-11-11T05:29:25;101708.13;;;13.03;100.00
16194;BME280;8204;53.582;10.080;2022-11-11T05:31:56;101712.47;;;13.12;100.00
16194;BME280;8204;53.582;10.080;2022-11-11T05:34:25;101719.41;;;13.13;100.00
16194;BME280;8204;53.582;10.080;2022-11-11T05:36:53;101722.72;;;13.15;100.00
16194;BME280;8204;53.582;10.080;2022-11-11T05:39:22;101733.06;;;12.99;100.00
16194;BME280;8204;53.582;10.080;2022-11-11T05:41:51;101712.88;;;13.00;100.00
16194;BME280;8204;53.582;10.080;2022-11-11T05:44:20;101714.97;;;12.96;100.00
16194;BME280;8204;53.582;10.080;2022-11-11T05:46:49;101708.75;;;12.97;100.00
16194;BME280;8204;53.582;10.080;2022-11-11T05:49:21;101722.44;;;13.01;100.00
16194;BME280;8204;53.582;10.080;2022-11-11T05:51:50;101717.44;;;12.98;100.00
16194;BME280;8204;53.582;10.080;2022-11-11T05:54:27;101722.47;;;13.09;100.00
16194;BME280;8204;53.582;10.080;2022-11-11T05:56:56;101732.88;;;13.10;100.00
16194;BME280;8204;53.582;10.080;2022-11-11T05:59:28;101720.97;;;13.06;100.00
16194;BME280;8204;53.582;10.080;2022-11-11T06:01:57;101717.22;;;13.09;100.00
16194;BME280;8204;53.582;10.080;2022-11-11T06:04:28;101725.44;;;13.06;100.00
16194;BME280;8204;53.582;10.080;2022-11-11T06:06:59;101721.66;;;13.08;100.00
16194;BME280;8204;53.582;10.080;2022-11-11T06:09:28;101723.06;;;13.03;100.00
16194;BME280;8204;53.582;10.080;2022-11-11T06:11:56;101715.88;;;13.05;100.00
16194;BME280;8204;53.582;10.080;2022-11-11T06:14:25;101720.97;;;13.06;100.00
16194;BME280;8204;53.582;10.080;2022-11-11T06:16:54;101733.84;;;13.09;100.00
16194;BME280;8204;53.582;10.080;2022-11-11T06:19:23;101729.56;;;13.08;100.00
16194;BME280;8204;53.582;10.080;2022-11-11T06:21:55;101725.06;;;13.01;100.00
16194;BME280;8204;53.582;10.080;2022-11-11T06:24:28;101718.72;;;12.94;100.00
16194;BME280;8204;53.582;10.080;2022-11-11T06:26:57;101715.09;;;12.95;100.00
16194;BME280;8204;53.582;10.080;2022-11-11T06:29:27;101718.25;;;12.98;100.00
16194;BME280;8204;53.582;10.080;2022-11-11T06:31:56;101718.50;;;12.87;100.00
16194;BME280;8204;53.582;10.080;2022-11-11T06:34:25;101708.91;;;12.86;100.00
16194;BME280;8204;53.582;10.080;2022-11-11T06:36:56;101706.59;;;12.83;100.00
16194;BME280;8204;53.582;10.080;2022-11-11T06:39:25;101691.75;;;12.92;100.00
16194;BME280;8204;53.582;10.080;2022-11-11T06:41:53;101697.53;;;12.95;100.00
16194;BME280;8204;53.582;10.080;2022-11-11T06:44:22;101700.97;;;12.96;100.00
16194;BME280;8204;53.582;10.080;2022-11-11T06:46:51;101694.06;;;12.95;100.00
16194;BME280;8204;53.582;10.080;2022-11-11T06:49:20;101706.91;;;12.98;100.00
16194;BME280;8204;53.582;10.080;2022-11-11T06:51:49;101715.63;;;12.98;100.00
16194;BME280;8204;53.582;10.080;2022-11-11T06:54:20;101699.84;;;12.98;100.00
16194;BME280;8204;53.582;10.080;2022-11-11T06:56:49;101694.94;;;12.86;100.00
16194;BME280;8204;53.582;10.080;2022-11-11T06:59:18;101699.78;;;12.90;100.00
16194;BME280;8204;53.582;10.080;2022-11-11T07:01:47;101705.06;;;12.90;100.00
16194;BME280;8204;53.582;10.080;2022-11-11T07:04:17;101705.59;;;12.94;100.00
16194;BME280;8204;53.582;10.080;2022-11-11T07:06:46;101713.00;;;12.98;100.00
16194;BME280;8204;53.582;10.080;2022-11-11T07:09:15;101703.41;;;12.89;100.00
16194;BME280;8204;53.582;10.080;2022-11-11T07:11:46;101687.78;;;12.78;100.00
16194;BME280;8204;53.582;10.080;2022-11-11T07:14:15;101672.69;;;12.80;100.00
16194;BME280;8204;53.582;10.080;2022-11-11T07:16:43;101673.06;;;12.85;100.00
16194;BME280;8204;53.582;10.080;2022-11-11T07:19:12;101685.63;;;12.91;100.00
16194;BME280;8204;53.582;10.080;2022-11-11T07:21:41;101696.31;;;12.90;100.00
16194;BME280;8204;53.582;10.080;2022-11-11T07:24:10;101694.09;;;12.85;100.00
16194;BME280;8204;53.582;10.080;2022-11-11T07:26:39;101678.91;;;12.79;100.00
16194;BME280;8204;53.582;10.080;2022-11-11T07:29:10;101660.94;;;12.75;100.00
16194;BME280;8204;53.582;10.080;2022-11-11T07:31:40;101660.38;;;12.81;100.00
16194;BME280;8204;53.582;10.080;2022-11-11T07:34:09;101665.03;;;12.87;100.00
16194;BME280;8204;53.582;10.080;2022-11-11T07:36:38;101675.91;;;12.74;100.00
16194;BME280;8204;53.582;10.080;2022-11-11T07:39:07;101673.38;;;12.82;100.00
16194;BME280;8204;53.582;10.080;2022-11-11T07:41:36;101668.06;;;12.92;100.00
16194;BME280;8204;53.582;10.080;2022-11-11T07:44:04;101686.47;;;12.92;100.00
16194;BME280;8204;53.582;10.080;2022-11-11T07:46:36;101674.59;;;12.88;100.00
16194;BME280;8204;53.582;10.080;2022-11-11T07:49:04;101663.53;;;12.84;100.00
16194;BME280;8204;53.582;10.080;2022-11-11T07:51:33;101650.50;;;12.83;100.00
16194;BME280;8204;53.582;10.080;2022-11-11T07:54:03;101636.72;;;12.81;100.00
16194;BME280;8204;53.582;10.080;2022-11-11T07:56:32;101620.94;;;12.81;100.00
16194;BME280;8204;53.582;10.080;2022-11-11T07:59:01;101616.47;;;12.81;100.00
16194;BME280;8204;53.582;10.080;2022-11-11T08:01:30;101604.31;;;12.80;100.00
16194;BME280;8204;53.582;10.080;2022-11-11T08:04:01;101601.69;;;12.80;100.00
16194;BME280;8204;53.582;10.080;2022-11-11T08:06:30;101607.16;;;12.87;100.00
16194;BME280;8204;53.582;10.080;2022-11-11T08:08:58;101593.50;;;12.83;100.00
16194;BME280;8204;53.582;10.080;2022-11-11T08:11:27;101590.53;;;12.86;100.00
16194;BME280;8204;53.582;10.080;2022-11-11T08:14:08;101596.88;;;12.93;100.00
16194;BME280;8204;53.582;10.080;2022-11-11T08:16:37;101600.47;;;12.92;100.00
16194;BME280;8204;53.582;10.080;2022-11-11T08:19:08;101594.41;;;12.92;100.00
16194;BME280;8204;53.582;10.080;2022-11-11T08:21:37;101578.16;;;12.96;100.00
16194;BME280;8204;53.582;10.080;2022-11-11T08:24:06;101585.09;;;12.97;100.00
16194;BME280;8204;53.582;10.080;2022-11-11T08:26:35;101597.56;;;12.95;100.00
16194;BME280;8204;53.582;10.080;2022-11-11T08:29:04;101582.75;;;12.94;100.00
16194;BME280;8204;53.582;10.080;2022-11-11T08:31:33;101571.09;;;12.97;100.00
16194;BME280;8204;53.582;10.080;2022-11-11T08:34:04;101585.09;;;12.97;100.00
16194;BME280;8204;53.582;10.080;2022-11-11T08:36:36;101586.34;;;12.93;100.00
16194;BME280;8204;53.582;10.080;2022-11-11T08:39:05;101584.25;;;12.97;100.00
16194;BME280;8204;53.582;10.080;2022-11-11T08:41:34;101594.78;;;12.97;100.00
16194;BME280;8204;53.582;10.080;2022-11-11T08:44:03;101596.59;;;12.96;100.00
16194;BME280;8204;53.582;10.080;2022-11-11T08:46:32;101596.72;;;12.95;100.00
16194;BME280;8204;53.582;10.080;2022-11-11T08:49:01;101589.66;;;12.95;100.00
16194;BME280;8204;53.582;10.080;2022-11-11T08:51:29;101586.06;;;12.96;100.00
16194;BME280;8204;53.582;10.080;2022-11-11T08:54:01;101589.97;;;12.92;100.00
16194;BME280;8204;53.582;10.080;2022-11-11T08:56:30;101592.47;;;12.94;100.00
16194;BME280;8204;53.582;10.080;2022-11-11T08:58:58;101595.97;;;13.02;100.00
16194;BME280;8204;53.582;10.080;2022-11-11T09:01:30;101594.00;;;13.04;100.00
16194;BME280;8204;53.582;10.080;2022-11-11T09:03:59;101613.94;;;13.07;100.00
16194;BME280;8204;53.582;10.080;2022-11-11T09:06:28;101611.44;;;13.05;100.00
16194;BME280;8204;53.582;10.080;2022-11-11T09:08:57;101614.56;;;13.01;100.00
16194;BME280;8204;53.582;10.080;2022-11-11T09:11:28;101614.75;;;13.07;100.00
16194;BME280;8204;53.582;10.080;2022-11-11T09:14:01;101608.69;;;13.07;100.00
16194;BME280;8204;53.582;10.080;2022-11-11T09:16:29;101623.63;;;13.06;100.00
16194;BME280;8204;53.582;10.080;2022-11-11T09:18:58;101631.69;;;13.05;100.00
16194;BME280;8204;53.582;10.080;2022-11-11T09:21:27;101637.09;;;13.03;100.00
16194;BME280;8204;53.582;10.080;2022-11-11T09:23:55;101623.94;;;13.03;100.00
16194;BME280;8204;53.582;10.080;2022-11-11T09:26:28;101631.44;;;12.98;100.00
16194;BME280;8204;53.582;10.080;2022-11-11T09:28:56;101628.06;;;13.06;100.00
16194;BME280;8204;53.582;10.080;2022-11-11T09:31:25;101639.56;;;13.05;100.00
16194;BME280;8204;53.582;10.080;2022-11-11T09:33:54;101641.41;;;13.12;100.00
16194;BME280;8204;53.582;10.080;2022-11-11T09:36:23;101636.78;;;13.06;100.00
16194;BME280;8204;53.582;10.080;2022-11-11T09:38:51;101639.75;;;13.11;100.00
16194;BME280;8204;53.582;10.080;2022-11-11T09:41:23;101647.38;;;13.14;100.00
16194;BME280;8204;53.582;10.080;2022-11-11T09:44:02;101660.88;;;13.19;100.00
16194;BME280;8204;53.582;10.080;2022-11-11T09:46:37;101663.84;;;13.16;100.00
16194;BME280;8204;53.582;10.080;2022-11-11T09:49:30;101646.22;;;13.16;100.00
16194;BME280;8204;53.582;10.080;2022-11-11T09:52:08;101657.09;;;13.13;100.00
16194;BME280;8204;53.582;10.080;2022-11-11T09:54:44;101639.75;;;13.11;100.00
16194;BME280;8204;53.582;10.080;2022-11-11T09:57:21;101647.38;;;13.14;100.00
16194;BME280;8204;53.582;10.080;2022-11-11T09:59:54;101653.59;;;13.13;100.00
16194;BME280;8204;53.582;10.080;2022-11-11T10:02:29;101658.19;;;13.11;100.00
16194;BME280;8204;53.582;10.080;2022-11-11T10:05:07;101662.03;;;13.16;100.00
16194;BME280;8204;53.582;10.080;2022-11-11T10:07:39;101677.53;;;13.19;100.00
16194;BME280;8204;53.582;10.080;2022-11-11T10:10:16;101667.97;;;13.18;100.00
16194;BME280;8204;53.582;10.080;2022-11-11T10:12:49;101683.41;;;13.13;100.00
16194;BME280;8204;53.582;10.080;2022-11-11T10:15:25;101696.41;;;13.15;100.00
16194;BME280;8204;53.582;10.080;2022-11-11T10:18:10;101700.19;;;13.20;100.00
16194;BME280;8204;53.582;10.080;2022-11-11T10:20:47;101708.59;;;13.16;100.00
16194;BME280;8204;53.582;10.080;2022-11-11T10:23:25;101720.59;;;13.18;100.00
16194;BME280;8204;53.582;10.080;2022-11-11T10:26:00;101702.03;;;13.20;100.00
16194;BME280;8204;53.582;10.080;2022-11-11T10:28:33;101733.97;;;13.25;100.00
16194;BME280;8204;53.582;10.080;2022-11-11T10:31:12;101755.88;;;13.25;100.00
16194;BME280;8204;53.582;10.080;2022-11-11T10:33:47;101766.41;;;13.25;100.00
16194;BME280;8204;53.582;10.080;2022-11-11T10:36:19;101791.88;;;13.25;100.00
16194;BME280;8204;53.582;10.080;2022-11-11T10:38:52;101790.09;;;13.25;100.00
16194;BME280;8204;53.582;10.080;2022-11-11T10:41:28;101811.97;;;13.26;100.00
16194;BME280;8204;53.582;10.080;2022-11-11T10:43:57;101830.09;;;13.29;100.00
16194;BME280;8204;53.582;10.080;2022-11-11T10:46:33;101837.38;;;13.17;100.00
16194;BME280;8204;53.582;10.080;2022-11-11T10:49:08;101834.31;;;13.22;100.00
16194;BME280;8204;53.582;10.080;2022-11-11T10:51:42;101838.28;;;13.26;100.00
16194;BME280;8204;53.582;10.080;2022-11-11T10:54:16;101843.53;;;13.26;100.00
16194;BME280;8204;53.582;10.080;2022-11-11T10:56:51;101863.63;;;13.27;100.00
16194;BME280;8204;53.582;10.080;2022-11-11T10:59:25;101862.41;;;13.21;100.00
16194;BME280;8204;53.582;10.080;2022-11-11T11:02:05;101860.03;;;13.28;100.00
16194;BME280;8204;53.582;10.080;2022-11-11T11:04:41;101860.19;;;13.26;100.00
16194;BME280;8204;53.582;10.080;2022-11-11T11:07:17;101869.97;;;13.34;100.00
16194;BME280;8204;53.582;10.080;2022-11-11T11:09:51;101872.59;;;13.34;100.00
16194;BME280;8204;53.582;10.080;2022-11-11T11:12:27;101877.94;;;13.42;100.00
16194;BME280;8204;53.582;10.080;2022-11-11T11:15:00;101890.44;;;13.40;100.00
16194;BME280;8204;53.582;10.080;2022-11-11T11:17:35;101890.44;;;13.40;100.00
16194;BME280;8204;53.582;10.080;2022-11-11T11:20:10;101906.75;;;13.43;100.00
16194;BME280;8204;53.582;10.080;2022-11-11T11:22:48;101902.53;;;13.33;100.00
16194;BME280;8204;53.582;10.080;2022-11-11T11:25:18;101895.38;;;13.25;100.00
16194;BME280;8204;53.582;10.080;2022-11-11T11:27:49;101880.78;;;13.31;100.00
16194;BME280;8204;53.582;10.080;2022-11-11T11:30:21;101871.63;;;13.35;100.00
16194;BME280;8204;53.582;10.080;2022-11-11T11:33:00;101871.03;;;13.41;100.00
16194;BME280;8204;53.582;10.080;2022-11-11T11:35:32;101894.28;;;13.45;100.00
16194;BME280;8204;53.582;10.080;2022-11-11T11:38:03;101879.28;;;13.46;100.00
16194;BME280;8204;53.582;10.080;2022-11-11T11:40:44;101868.47;;;13.49;100.00
16194;BME280;8204;53.582;10.080;2022-11-11T11:43:25;101894.81;;;13.49;100.00
16194;BME280;8204;53.582;10.080;2022-11-11T11:45:55;101883.22;;;13.42;100.00
16194;BME280;8204;53.582;10.080;2022-11-11T11:48:36;101883.50;;;13.39;100.00
16194;BME280;8204;53.582;10.080;2022-11-11T11:51:19;101888.47;;;13.42;100.00
16194;BME280;8204;53.582;10.080;2022-11-11T11:56:41;101899.00;;;13.42;100.00
16194;BME280;8204;53.582;10.080;2022-11-11T11:59:14;101898.09;;;13.51;100.00
16194;BME280;8204;53.582;10.080;2022-11-11T12:01:52;101906.97;;;13.50;100.00
16194;BME280;8204;53.582;10.080;2022-11-11T12:04:39;101907.56;;;13.44;100.00
16194;BME280;8204;53.582;10.080;2022-11-11T12:07:21;101909.81;;;13.39;100.00
16194;BME280;8204;53.582;10.080;2022-11-11T12:10:02;101905.94;;;13.43;100.00
16194;BME280;8204;53.582;10.080;2022-11-11T12:12:39;101911.72;;;13.46;100.00
16194;BME280;8204;53.582;10.080;2022-11-11T12:15:32;101901.34;;;13.45;100.00
16194;BME280;8204;53.582;10.080;2022-11-11T12:18:26;101909.97;;;13.37;100.00
16194;BME280;8204;53.582;10.080;2022-11-11T12:21:06;101903.06;;;13.36;100.00
16194;BME280;8204;53.582;10.080;2022-11-11T12:23:50;101891.03;;;13.34;100.00
16194;BME280;8204;53.582;10.080;2022-11-11T12:26:27;101889.69;;;13.30;100.00
16194;BME280;8204;53.582;10.080;2022-11-11T12:29:09;101912.78;;;13.36;100.00
16194;BME280;8204;53.582;10.080;2022-11-11T12:31:52;101902.63;;;13.41;100.00
16194;BME280;8204;53.582;10.080;2022-11-11T12:37:34;101911.56;;;13.30;100.00
16194;BME280;8204;53.582;10.080;2022-11-11T12:40:18;101918.16;;;13.34;100.00
16194;BME280;8204;53.582;10.080;2022-11-11T12:43:01;101924.28;;;13.35;100.00
16194;BME280;8204;53.582;10.080;2022-11-11T12:45:37;101927.34;;;13.30;100.00
16194;BME280;8204;53.582;10.080;2022-11-11T12:48:24;101925.63;;;13.39;100.00
16194;BME280;8204;53.582;10.080;2022-11-11T12:51:03;101918.56;;;13.39;100.00
16194;BME280;8204;53.582;10.080;2022-11-11T12:53:44;101941.72;;;13.36;100.00
16194;BME280;8204;53.582;10.080;2022-11-11T12:56:23;101934.97;;;13.24;100.00
16194;BME280;8204;53.582;10.080;2022-11-11T12:58:57;101924.38;;;13.16;100.00
16194;BME280;8204;53.582;10.080;2022-11-11T13:01:40;101928.47;;;13.28;100.00
16194;BME280;8204;53.582;10.080;2022-11-11T13:04:26;101937.72;;;13.32;100.00
16194;BME280;8204;53.582;10.080;2022-11-11T13:07:15;101947.06;;;13.26;100.00
16194;BME280;8204;53.582;10.080;2022-11-11T13:10:02;101955.47;;;13.30;100.00
16194;BME280;8204;53.582;10.080;2022-11-11T13:12:36;101951.47;;;13.26;100.00
16194;BME280;8204;53.582;10.080;2022-11-11T13:15:13;101949.16;;;13.23;100.00
16194;BME280;8204;53.582;10.080;2022-11-11T13:17:44;101946.41;;;13.15;100.00